createdAt,value
2022-10-09T00:00:48.404Z,98816.38
2022-10-09T00:03:17.166Z,98819.34
2022-10-09T00:05:45.369Z,98826.44
2022-10-09T00:08:12.176Z,98825.97
2022-10-09T00:10:43.128Z,98829.72
2022-10-09T00:13:09.912Z,98836.47
2022-10-09T00:15:41.431Z,98830.22
2022-10-09T00:18:09.812Z,98829.63
2022-10-09T00:20:41.656Z,98832.56
2022-10-09T00:23:09.414Z,98835.28
2022-10-09T00:25:36.462Z,98830.34
2022-10-09T00:28:04.679Z,98828.56
2022-10-09T00:30:31.670Z,98825.03
2022-10-09T00:32:58.387Z,98839.19
2022-10-09T00:35:25.032Z,98830.34
2022-10-09T00:37:51.859Z,98833.13
2022-10-09T00:40:18.438Z,98826.78
2022-10-09T00:42:45.698Z,98825.47
2022-10-09T00:45:19.915Z,98829.72
2022-10-09T00:47:53.565Z,98809.47
2022-10-09T00:50:40.123Z,98829.25
2022-10-09T00:53:07.998Z,98821.13
2022-10-09T00:55:35.776Z,98821.47
2022-10-09T00:58:02.672Z,98821.47
2022-10-09T01:00:29.505Z,98821.25
2022-10-09T01:02:56.201Z,98822.56
2022-10-09T01:05:32.342Z,98828.56
2022-10-09T01:08:16.847Z,98821.38
2022-10-09T01:11:06.832Z,98823.59
2022-10-09T01:13:38.849Z,98825.47
2022-10-09T01:16:22.833Z,98821.25
2022-10-09T01:19:08.915Z,98815.81
2022-10-09T01:21:44.327Z,98812.28
2022-10-09T01:24:13.880Z,98818.66
2022-10-09T01:27:01.692Z,98814.78
2022-10-09T01:29:35.389Z,98810.16
2022-10-09T01:32:04.432Z,98812.38
2022-10-09T01:34:32.538Z,98807.31
2022-10-09T01:37:00.093Z,98812.38
2022-10-09T01:39:28.980Z,98809.91
2022-10-09T01:41:56.694Z,98805.81
2022-10-09T01:44:31.471Z,98811.81
2022-10-09T01:46:59.362Z,98813.47
2022-10-09T01:49:37.815Z,98805.69
2022-10-09T01:52:16.353Z,98810.88
2022-10-09T01:54:59.913Z,98808.72
2022-10-09T01:57:33.798Z,98803.53
2022-10-09T02:00:07.238Z,98808.72
2022-10-09T02:02:40.127Z,98800.00
2022-10-09T02:05:09.522Z,98792.72
2022-10-09T02:07:37.156Z,98800.25
2022-10-09T02:10:05.949Z,98796.25
2022-10-09T02:12:38.349Z,98799.66
2022-10-09T02:15:05.747Z,98798.72
2022-10-09T02:17:36.786Z,98794.69
2022-10-09T02:20:11.865Z,98799.53
2022-10-09T02:22:38.706Z,98790.81
2022-10-09T02:25:06.716Z,98790.56
2022-10-09T02:27:34.015Z,98793.88
2022-10-09T02:30:01.334Z,98794.69
2022-10-09T02:32:28.906Z,98787.53
2022-10-09T02:34:55.520Z,98791.88
2022-10-09T02:37:22.116Z,98793.41
2022-10-09T02:39:49.112Z,98790.69
2022-10-09T02:42:16.084Z,98786.09
2022-10-09T02:44:42.707Z,98789.50
2022-10-09T02:47:09.605Z,98787.97
2022-10-09T02:49:36.199Z,98790.56
2022-10-09T02:52:02.902Z,98784.22
2022-10-09T02:54:29.517Z,98785.38
2022-10-09T02:56:56.185Z,98781.16
2022-10-09T02:59:22.788Z,98786.34
2022-10-09T03:01:49.550Z,98788.94
2022-10-09T03:04:16.404Z,98787.16
2022-10-09T03:06:43.003Z,98782.78
2022-10-09T03:09:09.562Z,98777.34
2022-10-09T03:11:36.344Z,98785.25
2022-10-09T03:14:02.909Z,98781.97
2022-10-09T03:16:29.641Z,98769.81
2022-10-09T03:18:56.468Z,98775.84
2022-10-09T03:21:25.852Z,98780.19
2022-10-09T03:23:53.584Z,98786.34
2022-10-09T03:26:23.437Z,98788.94
2022-10-09T03:28:51.970Z,98785.88
2022-10-09T03:31:50.434Z,98788.59
2022-10-09T03:34:07.432Z,98800.00
2022-10-09T03:36:39.755Z,98790.13
2022-10-09T03:39:06.417Z,98795.31
2022-10-09T03:41:32.978Z,98791.06
2022-10-09T03:43:59.628Z,98785.75
2022-10-09T03:46:26.258Z,98788.47
2022-10-09T03:48:52.912Z,98787.84
2022-10-09T03:51:19.478Z,98792.84
2022-10-09T03:53:46.122Z,98795.53
2022-10-09T03:56:12.722Z,98790.94
2022-10-09T03:58:39.329Z,98791.63
2022-10-09T04:01:05.976Z,98787.16
2022-10-09T04:03:32.814Z,98793.88
2022-10-09T04:05:59.463Z,98788.47
2022-10-09T04:08:26.419Z,98792.00
2022-10-09T04:10:58.298Z,98794.59
2022-10-09T04:13:25.204Z,98781.16
2022-10-09T04:15:53.461Z,98787.97
2022-10-09T04:18:20.286Z,98791.28
2022-10-09T04:20:54.894Z,98786.53
2022-10-09T04:23:24.539Z,98784.69
2022-10-09T04:25:55.846Z,98790.81
2022-10-09T04:28:23.545Z,98792.91
2022-10-09T04:30:50.501Z,98789.38
2022-10-09T04:33:17.147Z,98793.53
2022-10-09T04:35:44.735Z,98790.31
2022-10-09T04:38:12.003Z,98794.13
2022-10-09T04:40:38.658Z,98794.69
2022-10-09T04:43:05.306Z,98794.56
2022-10-09T04:45:32.108Z,98798.47
2022-10-09T04:47:58.758Z,98800.63
2022-10-09T04:50:25.388Z,98803.09
2022-10-09T04:52:58.193Z,98795.44
2022-10-09T04:55:24.831Z,98804.50
2022-10-09T04:57:51.370Z,98798.47
2022-10-09T05:00:18.145Z,98799.50
2022-10-09T05:02:44.673Z,98798.00
2022-10-09T05:05:11.883Z,98799.06
2022-10-09T05:07:38.694Z,98801.03
2022-10-09T05:10:06.278Z,98790.09
2022-10-09T05:12:32.824Z,98811.53
2022-10-09T05:14:59.591Z,98795.59
2022-10-09T05:17:26.182Z,98807.16
2022-10-09T05:19:52.812Z,98812.34
2022-10-09T05:22:19.361Z,98803.88
2022-10-09T05:24:46.014Z,98809.19
2022-10-09T05:27:12.732Z,98812.03
2022-10-09T05:29:39.395Z,98808.69
2022-10-09T05:32:06.135Z,98815.66
2022-10-09T05:34:34.005Z,98800.59
2022-10-09T05:37:00.660Z,98810.38
2022-10-09T05:39:27.245Z,98813.88
2022-10-09T05:41:53.794Z,98816.59
2022-10-09T05:44:20.503Z,98811.06
2022-10-09T05:46:47.091Z,98811.22
2022-10-09T05:49:13.760Z,98806.75
2022-10-09T05:51:42.865Z,98809.94
2022-10-09T05:54:14.337Z,98813.38
2022-10-09T05:56:42.449Z,98819.84
2022-10-09T05:59:13.766Z,98825.72
2022-10-09T06:01:46.782Z,98830.34
2022-10-09T06:04:16.686Z,98834.69
2022-10-09T06:06:44.148Z,98838.44
2022-10-09T06:09:11.797Z,98851.09
2022-10-09T06:11:39.722Z,98844.78
2022-10-09T06:14:08.936Z,98839.06
2022-10-09T06:16:38.514Z,98847.34
2022-10-09T06:19:06.334Z,98851.03
2022-10-09T06:21:33.397Z,98867.63
2022-10-09T06:24:02.133Z,98869.00
2022-10-09T06:26:29.921Z,98862.50
2022-10-09T06:28:58.518Z,98882.00
2022-10-09T06:31:28.142Z,98877.63
2022-10-09T06:33:55.570Z,98879.31
2022-10-09T06:36:28.034Z,98878.41
2022-10-09T06:38:55.271Z,98860.22
2022-10-09T06:41:24.513Z,98885.13
2022-10-09T06:43:52.637Z,98884.53
2022-10-09T06:46:21.075Z,98881.78
2022-10-09T06:48:48.127Z,98889.16
2022-10-09T06:51:17.457Z,98889.16
2022-10-09T06:53:49.790Z,98888.81
2022-10-09T06:56:18.032Z,98888.34
2022-10-09T06:58:45.137Z,98882.88
2022-10-09T07:01:20.260Z,98889.44
2022-10-09T07:03:52.264Z,98898.44
2022-10-09T07:06:24.954Z,98899.13
2022-10-09T07:08:58.887Z,98891.47
2022-10-09T07:11:28.053Z,98898.19
2022-10-09T07:14:00.090Z,98896.13
2022-10-09T07:16:33.695Z,98894.97
2022-10-09T07:19:03.555Z,98901.47
2022-10-09T07:21:30.349Z,98906.44
2022-10-09T07:24:00.138Z,98908.78
2022-10-09T07:26:28.760Z,98921.53
2022-10-09T07:28:56.001Z,98921.88
2022-10-09T07:31:23.298Z,98931.19
2022-10-09T07:33:51.592Z,98940.28
2022-10-09T07:36:18.786Z,98942.81
2022-10-09T07:38:50.727Z,98959.47
2022-10-09T07:41:17.731Z,98961.84
2022-10-09T07:43:44.277Z,98961.84
2022-10-09T07:46:13.699Z,98964.88
2022-10-09T07:48:40.936Z,98965.50
2022-10-09T07:51:13.449Z,98973.69
2022-10-09T07:53:40.041Z,98974.38
2022-10-09T07:56:07.395Z,98980.66
2022-10-09T07:58:34.085Z,98992.03
2022-10-09T08:01:05.969Z,98989.44
2022-10-09T08:03:33.263Z,98982.72
2022-10-09T08:06:00.057Z,99004.47
2022-10-09T08:08:26.913Z,99002.72
2022-10-09T08:10:53.589Z,99006.78
2022-10-09T08:13:20.217Z,99009.59
2022-10-09T08:15:46.877Z,99013.72
2022-10-09T08:18:13.618Z,99014.44
2022-10-09T08:20:40.312Z,99019.84
2022-10-09T08:23:07.010Z,99025.94
2022-10-09T08:25:37.429Z,99024.09
2022-10-09T08:28:05.158Z,99021.81
2022-10-09T08:30:32.036Z,99020.28
2022-10-09T08:32:58.827Z,99024.53
2022-10-09T08:35:25.426Z,99019.94
2022-10-09T08:37:52.035Z,99023.16
2022-10-09T08:40:58.103Z,99025.66
2022-10-09T08:43:54.525Z,99022.22
2022-10-09T08:46:26.210Z,99021.91
2022-10-09T08:48:54.820Z,99020.13
2022-10-09T08:51:28.142Z,99020.47
2022-10-09T08:54:01.067Z,99022.03
2022-10-09T08:56:30.040Z,99029.88
2022-10-09T08:58:57.022Z,99020.75
2022-10-09T09:01:34.576Z,99027.38
2022-10-09T09:04:23.102Z,99023.06
2022-10-09T09:06:49.735Z,99016.09
2022-10-09T09:09:38.133Z,99017.66
2022-10-09T09:12:34.396Z,99013.06
2022-10-09T09:15:23.463Z,99015.78
2022-10-09T09:18:06.422Z,99020.84
2022-10-09T09:20:48.352Z,99013.06
2022-10-09T09:23:16.458Z,99028.44
2022-10-09T09:25:45.780Z,99031.13
2022-10-09T09:28:18.440Z,99034.75
2022-10-09T09:30:50.656Z,99031.84
2022-10-09T09:33:44.633Z,99038.16
2022-10-09T09:36:28.252Z,99031.94
2022-10-09T09:39:36.275Z,99031.13
2022-10-09T09:41:43.673Z,99034.66
2022-10-09T09:44:13.069Z,99036.59
2022-10-09T09:46:41.791Z,99040.16
2022-10-09T09:49:27.250Z,99046.03
2022-10-09T09:51:56.239Z,99038.91
2022-10-09T09:54:25.799Z,99039.81
2022-10-09T09:57:15.886Z,99027.28
2022-10-09T09:59:44.104Z,99041.97
2022-10-09T10:02:17.165Z,99044.78
2022-10-09T10:04:56.432Z,99044.78
2022-10-09T10:07:36.312Z,99043.88
2022-10-09T10:10:25.621Z,99046.56
2022-10-09T10:12:58.703Z,99046.47
2022-10-09T10:15:27.542Z,99042.91
2022-10-09T10:18:06.721Z,99047.28
2022-10-09T10:20:44.795Z,99049.16
2022-10-09T10:23:33.276Z,99045.13
2022-10-09T10:26:05.849Z,99038.91
2022-10-09T10:28:41.560Z,99036.09
2022-10-09T10:31:16.246Z,99033.50
2022-10-09T10:33:47.933Z,99033.50
2022-10-09T10:36:15.045Z,99034.22
2022-10-09T10:38:52.619Z,99025.50
2022-10-09T10:41:27.959Z,99023.63
2022-10-09T10:44:17.925Z,99021.56
2022-10-09T10:46:52.460Z,99020.09
2022-10-09T10:49:23.282Z,99018.16
2022-10-09T10:52:04.392Z,99026.50
2022-10-09T10:54:43.013Z,99025.69
2022-10-09T10:57:33.391Z,99027.03
2022-10-09T11:00:14.014Z,99030.31
2022-10-09T11:02:59.403Z,99029.63
2022-10-09T11:05:30.199Z,99033.13
2022-10-09T11:08:24.516Z,99027.56
2022-10-09T11:11:19.476Z,99027.19
2022-10-09T11:13:56.492Z,99028.31
2022-10-09T11:17:04.417Z,99029.97
2022-10-09T11:20:05.429Z,99031.81
2022-10-09T11:22:53.436Z,99028.41
2022-10-09T11:25:40.680Z,99028.44
2022-10-09T11:28:22.817Z,99027.81
2022-10-09T11:31:20.448Z,99025.72
2022-10-09T11:33:52.032Z,99025.09
2022-10-09T11:36:25.136Z,99023.06
2022-10-09T11:38:57.633Z,99023.28
2022-10-09T11:41:26.494Z,99019.50
2022-10-09T11:44:05.266Z,99015.56
2022-10-09T11:46:50.042Z,99003.16
2022-10-09T11:49:23.170Z,99002.00
2022-10-09T11:52:04.126Z,99003.78
2022-10-09T11:54:31.079Z,98999.63
2022-10-09T11:57:06.193Z,98991.75
2022-10-09T11:59:36.565Z,98999.31
2022-10-09T12:02:39.006Z,98994.66
2022-10-09T12:05:44.602Z,98989.28
2022-10-09T12:08:19.212Z,98990.31
2022-10-09T12:11:00.317Z,98990.31
2022-10-09T12:13:39.099Z,98982.97
2022-10-09T12:16:07.758Z,98994.44
2022-10-09T12:18:39.032Z,98984.78
2022-10-09T12:21:09.050Z,98985.31
2022-10-09T12:23:41.015Z,98982.84
2022-10-09T12:26:13.045Z,98974.72
2022-10-09T12:28:45.980Z,98973.50
2022-10-09T12:31:21.491Z,98971.94
2022-10-09T12:33:51.580Z,98965.63
2022-10-09T12:36:26.770Z,98965.84
2022-10-09T12:38:54.056Z,98974.31
2022-10-09T12:41:26.654Z,98964.81
2022-10-09T12:43:55.365Z,98957.97
2022-10-09T12:46:30.536Z,98959.84
2022-10-09T12:48:58.480Z,98956.81
2022-10-09T12:51:26.963Z,98950.88
2022-10-09T12:53:54.652Z,98957.75
2022-10-09T12:56:25.442Z,98959.50
2022-10-09T12:58:53.433Z,98959.22
2022-10-09T13:01:21.363Z,98952.16
2022-10-09T13:04:04.235Z,98954.75
2022-10-09T13:06:38.395Z,98948.63
2022-10-09T13:09:07.444Z,98943.78
2022-10-09T13:11:35.439Z,98945.44
2022-10-09T13:14:02.346Z,98950.53
2022-10-09T13:16:42.129Z,98948.16
2022-10-09T13:19:38.266Z,98955.81
2022-10-09T13:22:18.479Z,98947.41
2022-10-09T13:24:45.413Z,98936.94
2022-10-09T13:27:14.650Z,98937.22
2022-10-09T13:29:43.011Z,98939.50
2022-10-09T13:32:13.225Z,98943.03
2022-10-09T13:34:40.198Z,98937.84
2022-10-09T13:37:06.841Z,98938.56
2022-10-09T13:39:33.693Z,98932.56
2022-10-09T13:42:01.990Z,98930.78
2022-10-09T13:44:28.797Z,98932.00
2022-10-09T13:46:55.565Z,98942.78
2022-10-09T13:49:22.234Z,98932.41
2022-10-09T13:51:48.874Z,98934.72
2022-10-09T13:54:15.620Z,98937.06
2022-10-09T13:56:42.193Z,98923.72
2022-10-09T13:59:08.904Z,98925.38
2022-10-09T14:01:35.636Z,98927.97
2022-10-09T14:04:02.491Z,98922.91
2022-10-09T14:06:29.058Z,98919.00
2022-10-09T14:08:57.399Z,98910.13
2022-10-09T14:11:24.108Z,98918.06
2022-10-09T14:13:50.682Z,98921.75
2022-10-09T14:16:17.338Z,98915.88
2022-10-09T14:18:44.078Z,98914.53
2022-10-09T14:21:16.042Z,98913.22
2022-10-09T14:23:43.355Z,98913.53
2022-10-09T14:26:10.105Z,98903.88
2022-10-09T14:28:37.074Z,98893.03
2022-10-09T14:31:07.645Z,98901.88
2022-10-09T14:33:34.713Z,98906.78
2022-10-09T14:36:09.461Z,98907.19
2022-10-09T14:38:40.407Z,98908.63
2022-10-09T14:41:07.801Z,98892.97
2022-10-09T14:43:35.480Z,98894.81
2022-10-09T14:46:04.835Z,98894.75
2022-10-09T14:48:31.447Z,98881.44
2022-10-09T14:51:03.197Z,98894.69
2022-10-09T14:53:29.957Z,98894.41
2022-10-09T14:56:00.130Z,98884.25
2022-10-09T14:58:29.320Z,98899.69
2022-10-09T15:00:56.246Z,98885.41
2022-10-09T15:03:23.061Z,98889.66
2022-10-09T15:05:49.816Z,98883.75
2022-10-09T15:08:16.518Z,98885.13
2022-10-09T15:10:46.206Z,98883.03
2022-10-09T15:13:12.913Z,98885.53
2022-10-09T15:15:39.819Z,98880.34
2022-10-09T15:18:06.564Z,98884.06
2022-10-09T15:20:33.425Z,98873.72
2022-10-09T15:23:00.098Z,98875.75
2022-10-09T15:25:31.636Z,98873.38
2022-10-09T15:28:00.758Z,98868.75
2022-10-09T15:30:29.049Z,98870.19
2022-10-09T15:32:56.305Z,98864.31
2022-10-09T15:35:23.374Z,98864.84
2022-10-09T15:37:53.738Z,98867.81
2022-10-09T15:40:22.575Z,98870.09
2022-10-09T15:42:49.727Z,98867.50
2022-10-09T15:45:16.637Z,98869.13
2022-10-09T15:47:51.015Z,98861.38
2022-10-09T15:50:18.347Z,98861.28
2022-10-09T15:52:44.927Z,98856.91
2022-10-09T15:55:11.591Z,98860.22
2022-10-09T15:57:38.231Z,98861.66
2022-10-09T16:00:05.706Z,98870.16
2022-10-09T16:02:32.425Z,98862.69
2022-10-09T16:04:59.142Z,98856.41
2022-10-09T16:07:25.801Z,98852.88
2022-10-09T16:09:52.930Z,98837.59
2022-10-09T16:12:19.665Z,98859.91
2022-10-09T16:14:46.295Z,98864.75
2022-10-09T16:17:12.925Z,98866.53
2022-10-09T16:19:39.736Z,98867.22
2022-10-09T16:22:06.726Z,98865.19
2022-10-09T16:24:33.696Z,98867.56
2022-10-09T16:27:00.542Z,98863.09
2022-10-09T16:29:27.278Z,98863.72
2022-10-09T16:31:56.072Z,98862.69
2022-10-09T16:34:22.911Z,98863.66
2022-10-09T16:36:49.607Z,98865.50
2022-10-09T16:39:17.281Z,98869.13
2022-10-09T16:41:44.016Z,98866.53
2022-10-09T16:44:13.805Z,98858.06
2022-10-09T16:46:40.447Z,98872.97
2022-10-09T16:49:07.282Z,98870.69
2022-10-09T16:51:36.231Z,98864.19
2022-10-09T16:54:05.336Z,98869.34
2022-10-09T16:56:35.005Z,98872.91
2022-10-09T16:59:05.251Z,98865.06
2022-10-09T17:01:32.968Z,98869.19
2022-10-09T17:04:00.280Z,98867.22
2022-10-09T17:06:27.195Z,98878.59
2022-10-09T17:08:57.573Z,98883.44
2022-10-09T17:11:25.788Z,98884.59
2022-10-09T17:13:56.643Z,98891.09
2022-10-09T17:16:27.047Z,98896.28
2022-10-09T17:18:54.413Z,98877.16
2022-10-09T17:21:21.351Z,98895.59
2022-10-09T17:23:48.277Z,98892.81
2022-10-09T17:26:17.227Z,98897.97
2022-10-09T17:28:44.524Z,98891.38
2022-10-09T17:31:16.778Z,98893.63
2022-10-09T17:33:45.994Z,98901.50
2022-10-09T17:36:15.283Z,98900.69
2022-10-09T17:38:42.089Z,98904.19
2022-10-09T17:41:11.490Z,98894.50
2022-10-09T17:43:38.847Z,98901.53
2022-10-09T17:46:06.065Z,98896.88
2022-10-09T17:48:34.136Z,98893.75
2022-10-09T17:51:03.920Z,98891.47
2022-10-09T17:53:31.338Z,98896.88
2022-10-09T17:56:03.201Z,98900.38
2022-10-09T17:58:29.978Z,98900.38
2022-10-09T18:00:56.647Z,98907.00
2022-10-09T18:03:23.412Z,98902.84
2022-10-09T18:05:51.418Z,98908.38
2022-10-09T18:08:19.671Z,98908.16
2022-10-09T18:10:46.451Z,98913.66
2022-10-09T18:13:13.169Z,98918.72
2022-10-09T18:15:42.060Z,98912.72
2022-10-09T18:18:10.340Z,98910.03
2022-10-09T18:20:38.525Z,98914.16
2022-10-09T18:23:05.710Z,98914.06
2022-10-09T18:25:32.884Z,98923.16
2022-10-09T18:27:59.946Z,98918.19
2022-10-09T18:30:27.766Z,98916.53
2022-10-09T18:32:54.605Z,98917.34
2022-10-09T18:35:21.328Z,98908.78
2022-10-09T18:37:48.052Z,98901.72
2022-10-09T18:40:14.636Z,98912.81
2022-10-09T18:42:41.451Z,98900.69
2022-10-09T18:45:10.334Z,98905.03
2022-10-09T18:47:37.057Z,98914.34
2022-10-09T18:50:07.994Z,98909.25
2022-10-09T18:52:36.922Z,98916.91
2022-10-09T18:55:06.140Z,98912.06
2022-10-09T18:57:34.204Z,98905.44
2022-10-09T19:00:01.944Z,98910.63
2022-10-09T19:02:28.763Z,98910.34
2022-10-09T19:04:55.550Z,98905.84
2022-10-09T19:07:22.440Z,98909.81
2022-10-09T19:09:53.608Z,98911.06
2022-10-09T19:12:23.182Z,98910.53
2022-10-09T19:14:49.902Z,98910.66
2022-10-09T19:17:16.882Z,98911.28
2022-10-09T19:19:43.656Z,98906.22
2022-10-09T19:22:14.866Z,98911.66
2022-10-09T19:24:43.727Z,98918.19
2022-10-09T19:27:10.497Z,98915.41
2022-10-09T19:29:37.356Z,98913.31
2022-10-09T19:32:04.096Z,98915.50
2022-10-09T19:34:30.889Z,98913.97
2022-10-09T19:36:57.723Z,98912.91
2022-10-09T19:39:24.398Z,98915.50
2022-10-09T19:41:51.160Z,98917.50
2022-10-09T19:44:18.595Z,98905.56
2022-10-09T19:46:45.895Z,98917.28
2022-10-09T19:49:12.735Z,98915.72
2022-10-09T19:51:39.577Z,98926.06
2022-10-09T19:54:07.979Z,98923.38
2022-10-09T19:56:36.108Z,98915.41
2022-10-09T19:59:05.694Z,98924.94
2022-10-09T20:01:35.264Z,98912.63
2022-10-09T20:04:07.553Z,98921.63
2022-10-09T20:06:36.891Z,98920.06
2022-10-09T20:09:04.894Z,98923.47
2022-10-09T20:11:32.028Z,98928.66
2022-10-09T20:13:58.832Z,98925.25
2022-10-09T20:16:27.740Z,98927.84
2022-10-09T20:18:55.392Z,98927.94
2022-10-09T20:21:22.171Z,98926.28
2022-10-09T20:23:48.731Z,98921.00
2022-10-09T20:26:18.406Z,98925.25
2022-10-09T20:28:46.322Z,98926.59
2022-10-09T20:31:18.027Z,98931.97
2022-10-09T20:33:46.015Z,98910.31
2022-10-09T20:36:32.530Z,98927.03
2022-10-09T20:39:00.854Z,98925.97
2022-10-09T20:41:29.328Z,98931.34
2022-10-09T20:43:58.290Z,98930.22
2022-10-09T20:46:27.911Z,98932.69
2022-10-09T20:48:55.038Z,98929.41
2022-10-09T20:51:22.396Z,98932.78
2022-10-09T20:53:57.731Z,98936.63
2022-10-09T20:56:26.053Z,98931.56
2022-10-09T20:58:54.225Z,98931.66
2022-10-09T21:01:22.024Z,98926.91
2022-10-09T21:03:49.786Z,98929.69
2022-10-09T21:06:19.747Z,98929.69
2022-10-09T21:08:46.518Z,98939.13
2022-10-09T21:11:19.546Z,98938.09
2022-10-09T21:13:49.505Z,98937.25
2022-10-09T21:16:22.335Z,98948.88
2022-10-09T21:18:54.351Z,98942.72
2022-10-09T21:21:21.140Z,98950.59
2022-10-09T21:23:54.249Z,98950.38
2022-10-09T21:26:22.840Z,98944.28
2022-10-09T21:28:52.444Z,98948.75
2022-10-09T21:31:26.037Z,98948.88
2022-10-09T21:33:53.003Z,98940.66
2022-10-09T21:36:30.591Z,98943.47
2022-10-09T21:38:57.651Z,98950.38
2022-10-09T21:41:24.609Z,98933.34
2022-10-09T21:43:51.460Z,98936.63
2022-10-09T21:46:18.018Z,98942.56
2022-10-09T21:48:44.957Z,98944.19
2022-10-09T21:51:11.604Z,98942.72
2022-10-09T21:53:38.445Z,98949.69
2022-10-09T21:56:06.698Z,98949.56
2022-10-09T21:58:33.458Z,98960.44
2022-10-09T22:01:01.444Z,98956.19
2022-10-09T22:03:30.386Z,98957.97
2022-10-09T22:05:57.322Z,98949.16
2022-10-09T22:08:24.756Z,98948.31
2022-10-09T22:10:52.318Z,98952.38
2022-10-09T22:13:20.239Z,98946.88
2022-10-09T22:15:50.921Z,98949.69
2022-10-09T22:18:19.074Z,98947.09
2022-10-09T22:20:49.214Z,98939.44
2022-10-09T22:23:18.027Z,98950.72
2022-10-09T22:25:44.948Z,98958.38
2022-10-09T22:28:11.664Z,98955.06
2022-10-09T22:30:38.228Z,98948.41
2022-10-09T22:33:04.907Z,98950.78
2022-10-09T22:35:31.509Z,98946.97
2022-10-09T22:37:58.162Z,98948.50
2022-10-09T22:40:24.732Z,98957.09
2022-10-09T22:42:51.719Z,98957.19
2022-10-09T22:45:18.550Z,98955.13
2022-10-09T22:47:47.494Z,98956.78
2022-10-09T22:50:14.435Z,98950.19
2022-10-09T22:52:41.033Z,98954.28
2022-10-09T22:55:08.031Z,98943.56
2022-10-09T22:57:34.745Z,98949.22
2022-10-09T23:00:01.283Z,98953.47
2022-10-09T23:02:27.878Z,98946.38
2022-10-09T23:04:54.509Z,98946.75
2022-10-09T23:07:21.161Z,98948.41
2022-10-09T23:09:47.771Z,98942.94
2022-10-09T23:12:14.583Z,98934.25
2022-10-09T23:14:41.120Z,98941.91
2022-10-09T23:17:07.766Z,98943.94
2022-10-09T23:19:34.762Z,98950.34
2022-10-09T23:22:01.494Z,98941.69
2022-10-09T23:24:28.049Z,98953.91
2022-10-09T23:26:54.715Z,98945.00
2022-10-09T23:29:21.340Z,98946.13
2022-10-09T23:31:51.509Z,98942.91
2022-10-09T23:34:18.227Z,98937.94
2022-10-09T23:36:44.776Z,98935.03
2022-10-09T23:39:12.674Z,98946.84
2022-10-09T23:41:39.524Z,98933.31
2022-10-09T23:44:06.207Z,98941.78
2022-10-09T23:46:33.803Z,98941.78
2022-10-09T23:49:01.156Z,98940.44
2022-10-09T23:51:28.539Z,98946.03
2022-10-09T23:53:55.732Z,98940.84
2022-10-09T23:56:27.953Z,98940.44
2022-10-09T23:58:55.713Z,98937.41
